Latest Weather Observations for Roxby Downs

IDS60801

Issued at 10:32 pm CDT Sunday 25 January 2015 (issued every 30 minutes, with the page automatically refreshed every 10 minutes)

About weather observations | Map of weather stations | Latest weather observations for SA | Other Formats
Station Details ID: 016096 Name: OLYMPIC DAM AERODROME Lat: -30.48 Lon: 136.88 Height: 98.5 m
Data from the previous 72 hours. | See also: Recent months at Roxby Downs
Date/Time
CDT
Temp
°C
App
Temp
°C
Dew
Point
Rel
Hum
%
Delta-T
°C
Wind Press
QNH
hPa
Press
MSL
hPa
Rain
since 9 am
mm
Dir
 
Spd
km/h
Gust
km/h
Spd
kts
Gust
kts
25/10:30pm 23.1 18.3 5.5 32 8.9 SSE 20 30 11 16 1012.7 1012.1 0.0
25/10:00pm 23.8 17.1 5.7 31 9.2 SSE 30 39 16 21 1012.5 1011.9 0.0
25/09:30pm 24.8 20.2 1.7 22 11.0 SSW 15 26 8 14 1012.1 1011.5 0.0
25/09:00pm 25.6 20.5 1.0 20 11.6 SSW 17 22 9 12 1011.6 1011.0 0.0
25/08:30pm 26.1 20.4 0.7 19 12.0 SSW 20 28 11 15 1011.4 1010.8 0.0
25/08:00pm 26.8 21.2 -0.3 17 12.6 SSW 19 28 10 15 1011.4 1010.8 0.0
25/07:30pm 27.3 21.2 0.1 17 12.8 SSW 22 30 12 16 1011.3 1010.7 0.0
25/07:00pm 27.5 21.1 1.1 18 12.7 SSW 24 35 13 19 1011.2 1010.6 0.0
25/06:30pm 28.4 22.3 2.6 19 12.8 S 24 33 13 18 1011.0 1010.4 0.0
25/06:00pm 28.0 22.2 2.2 19 12.7 SSW 22 37 12 20 1010.9 1010.3 0.0
25/05:30pm 28.7 23.0 2.8 19 12.9 SW 22 30 12 16 1011.1 1010.5 0.0
25/05:00pm 27.8 21.1 3.5 21 12.2 SSW 28 37 15 20 1011.2 1010.6 0.0
25/04:30pm 28.0 22.7 5.0 23 11.9 S 22 35 12 19 1011.3 1010.7 0.0
25/04:00pm 28.6 23.3 6.7 25 11.7 SSW 24 39 13 21 1011.5 1010.9 0.0
25/03:30pm 28.4 23.5 7.1 26 11.4 SSW 22 54 12 29 1011.7 1011.1 0.0
25/03:00pm 27.2 22.5 7.6 29 10.5 SW 22 39 12 21 1011.9 1011.3 0.0
25/02:30pm 27.1 22.6 8.5 31 10.2 SSW 22 37 12 20 1012.2 1011.6 0.0
25/02:00pm 26.9 22.6 7.9 30 10.2 SSW 20 30 11 16 1012.5 1011.9 0.0
25/01:30pm 26.3 22.1 8.3 32 9.7 SW 20 32 11 17 1012.6 1012.0 0.0
25/01:00pm 25.2 21.6 8.2 34 9.1 S 17 30 9 16 1012.9 1012.3 0.0
25/12:30pm 25.0 20.8 8.1 34 9.1 S 20 32 11 17 1013.1 1012.5 0.0
25/12:00pm 24.3 20.4 9.5 39 8.1 S 20 33 11 18 1013.2 1012.6 0.0
25/11:30am 24.0 19.7 10.7 43 7.4 S 24 32 13 17 1013.0 1012.4 0.0
25/11:00am 23.0 19.3 11.4 48 6.5 SSW 22 32 12 17 1013.1 1012.5 0.0
25/10:30am 22.6 18.8 11.0 48 6.5 S 22 30 12 16 1013.1 1012.5 0.0
25/10:00am 21.7 18.0 11.4 52 5.7 SSE 22 32 12 17 1013.2 1012.6 0.0
25/09:30am 20.4 16.4 11.9 58 4.8 S 24 33 13 18 1012.8 1012.2 0.0
25/09:00am 20.1 16.1 11.8 59 4.6 S 24 37 13 20 1012.9 1012.3 0.0
25/08:30am 19.4 15.4 11.9 62 4.2 S 24 32 13 17 1012.7 1012.1 0.0
25/08:00am 19.0 15.9 11.6 62 4.1 SSW 19 24 10 13 1012.7 1012.1 0.0
25/07:30am 18.3 15.8 11.1 63 3.9 S 15 17 8 9 1012.4 1011.8 0.0
25/07:00am 17.7 15.6 11.0 65 3.6 S 13 19 7 10 1012.1 1011.5 0.0
25/06:30am 17.8 14.7 10.4 62 4.0 SSW 17 24 9 13 1011.9 1011.3 0.0
25/06:00am 18.2 14.4 9.8 58 4.5 SSW 20 26 11 14 1011.3 1010.7 0.0
25/05:30am 18.6 14.7 9.4 55 4.9 SSW 20 28 11 15 1011.2 1010.6 0.0
25/05:00am 19.0 14.7 9.2 53 5.2 SSW 22 28 12 15 1011.1 1010.5 0.0
25/04:30am 19.4 14.8 9.6 53 5.2 SSW 24 32 13 17 1010.6 1010.0 0.0
25/04:00am 19.8 15.0 10.2 54 5.2 SSW 26 37 14 20 1010.3 1009.6 0.0
25/03:30am 20.1 15.8 10.8 55 5.1 SSW 24 33 13 18 1010.2 1009.5 0.0
25/03:00am 20.6 14.9 11.0 54 5.3 SSW 32 41 17 22 1010.3 1009.6 0.0
25/02:30am 21.1 17.5 11.7 55 5.3 SSW 22 32 12 17 1010.3 1009.6 0.0
25/02:00am 21.4 17.0 11.7 54 5.4 SSW 26 37 14 20 1010.4 1009.8 0.0
25/01:30am 21.8 17.7 11.5 52 5.8 SSW 24 35 13 19 1010.4 1009.8 0.0
25/01:00am 22.4 17.6 11.5 50 6.1 SW 28 39 15 21 1010.1 1009.4 0.0
25/12:30am 23.0 17.2 11.4 48 6.5 SSW 33 43 18 23 1010.0 1009.3 0.0
25/12:00am 23.9 18.4 10.6 43 7.4 SSW 30 43 16 23 1010.0 1009.3 0.0
 
Date/Time
CDT
Temp
°C
App
Temp
°C
Dew
Point
Rel
Hum
%
Delta-T
°C
Wind Press
QNH
hPa
Press
MSL
hPa
Rain
since 9 am
mm
Dir
 
Spd
km/h
Gust
km/h
Spd
kts
Gust
kts
24/11:30pm 24.6 18.9 9.7 39 8.2 SSW 30 41 16 22 1009.9 1009.2 0.0
24/11:00pm 25.6 19.1 8.1 33 9.4 SW 32 43 17 23 1009.7 1009.0 0.0
24/10:30pm 26.4 19.6 7.9 31 10.0 SW 33 46 18 25 1009.4 1008.7 0.0
24/10:00pm 27.3 20.6 8.2 30 10.4 SW 33 46 18 25 1008.9 1008.2 0.0
24/09:30pm 28.2 22.2 8.5 29 10.8 SW 30 39 16 21 1008.4 1007.7 0.0
24/09:00pm 29.1 24.6 7.1 25 11.9 SW 20 28 11 15 1007.8 1007.1 0.0
24/08:30pm 29.6 23.8 6.3 23 12.4 SW 26 33 14 18 1007.5 1006.8 0.0
24/08:00pm 30.2 23.5 5.5 21 13.0 SSW 30 37 16 20 1007.1 1006.4 0.0
24/07:30pm 30.9 24.5 5.3 20 13.5 SW 28 37 15 20 1006.6 1005.9 0.0
24/07:00pm 31.2 24.9 5.6 20 13.6 SW 28 37 15 20 1006.4 1005.7 0.0
24/06:30pm 31.6 25.4 4.4 18 14.2 SW 26 35 14 19 1006.3 1005.6 0.0
24/06:00pm 32.4 25.9 2.5 15 15.2 SW 26 37 14 20 1006.3 1005.6 0.0
24/05:30pm 32.6 26.3 1.7 14 15.6 SW 24 35 13 19 1006.1 1005.4 0.0
24/05:00pm 33.3 27.1 2.2 14 15.8 SW 24 33 13 18 1006.3 1005.6 0.0
24/04:30pm 32.7 26.9 4.5 17 14.9 SW 24 35 13 19 1006.2 1005.5 0.0
24/04:00pm 33.0 28.4 6.3 19 14.5 SW 20 30 11 16 1006.3 1005.6 0.0
24/03:30pm 32.0 27.4 5.5 19 14.2 SW 19 26 10 14 1006.5 1005.8 0.0
24/03:00pm 31.9 27.4 6.2 20 13.9 SW 19 32 10 17 1006.7 1006.0 0.0
24/02:30pm 31.5 26.7 7.2 22 13.3 SSW 22 33 12 18 1007.0 1006.3 0.0
24/02:00pm 30.0 26.2 9.0 27 11.7 SSW 19 32 10 17 1007.4 1006.7 0.0
24/01:30pm 29.7 25.2 8.7 27 11.7 SSW 22 33 12 18 1007.9 1007.2 0.0
24/01:00pm 28.9 25.4 11.0 33 10.3 SSW 20 32 11 17 1008.0 1007.3 0.0
24/12:30pm 28.3 25.6 11.8 36 9.6 SSW 17 28 9 15 1008.3 1007.6 0.0
24/12:00pm 27.5 24.4 11.5 37 9.2 SSW 19 26 10 14 1008.6 1007.9 0.0
24/11:30am 27.2 24.0 12.0 38 8.8 SSW 20 30 11 16 1008.5 1007.8 0.0
24/11:00am 26.4 23.6 12.5 42 8.1 SSW 19 26 10 14 1008.5 1007.8 0.0
24/10:30am 25.1 21.3 12.3 45 7.4 S 24 32 13 17 1008.6 1007.9 0.0
24/10:00am 24.1 20.7 12.4 48 6.7 S 22 30 12 16 1008.8 1008.1 0.0
24/09:30am 22.6 18.3 12.0 51 6.0 S 26 33 14 18 1008.8 1008.1 0.0
24/09:00am 21.7 17.7 11.7 53 5.6 S 24 32 13 17 1008.7 1008.0 0.0
24/08:30am 21.3 17.2 11.6 54 5.4 SSW 24 33 13 18 1008.6 1007.9 0.0
24/08:00am 20.3 16.5 11.2 56 5.0 SSW 22 30 12 16 1008.5 1007.8 0.0
24/07:30am 19.7 16.2 10.9 57 4.8 SSW 20 26 11 14 1008.1 1007.4 0.0
24/07:00am 19.3 16.1 11.1 59 4.5 S 19 26 10 14 1007.8 1007.1 0.0
24/06:30am 19.5 15.3 11.0 58 4.7 SSW 24 35 13 19 1007.7 1007.0 0.0
24/06:00am 19.8 16.6 11.3 58 4.7 SSW 19 28 10 15 1007.4 1006.7 0.0
24/05:30am 20.1 17.2 11.1 56 5.0 S 17 26 9 14 1007.0 1006.3 0.0
24/05:00am 20.5 17.3 11.2 55 5.1 S 19 24 10 13 1007.3 1006.6 0.0
24/04:30am 21.0 17.6 11.1 53 5.5 S 20 28 11 15 1007.6 1006.9 0.0
24/04:00am 21.3 17.1 11.1 52 5.6 S 24 30 13 16 1007.2 1006.5 0.0
24/03:30am 21.8 17.2 11.2 51 5.9 S 26 33 14 18 1007.5 1006.8 0.0
24/03:00am 22.3 17.3 11.1 49 6.3 S 28 35 15 19 1007.5 1006.8 0.0
24/02:30am 23.2 19.8 12.5 51 6.1 S 22 28 12 15 1007.6 1006.9 0.0
24/02:00am 23.8 20.0 12.4 48 6.5 S 24 32 13 17 1007.5 1006.8 0.0
24/01:30am 24.6 21.1 13.5 50 6.5 S 24 30 13 16 1007.5 1006.8 0.0
24/01:00am 25.9 23.5 14.4 49 6.9 S 20 28 11 15 1007.6 1006.9 0.0
24/12:30am 27.3 25.0 14.7 46 7.6 S 20 26 11 14 1007.5 1006.8 0.0
24/12:00am 28.7 25.1 10.4 32 10.4 SSW 20 26 11 14 1007.1 1006.4 0.0
 
Date/Time
CDT
Temp
°C
App
Temp
°C
Dew
Point
Rel
Hum
%
Delta-T
°C
Wind Press
QNH
hPa
Press
MSL
hPa
Rain
since 9 am
mm
Dir
 
Spd
km/h
Gust
km/h
Spd
kts
Gust
kts
23/11:30pm 29.2 26.9 11.7 34 10.2 SSW 15 20 8 11 1007.1 1006.4 0.0
23/11:00pm 29.8 27.1 11.8 33 10.5 SSW 17 20 9 11 1007.1 1006.4 0.0
23/10:30pm 30.3 27.8 12.2 33 10.7 SW 17 20 9 11 1006.8 1006.1 0.0
23/10:00pm 30.7 28.3 12.6 33 10.7 SW 17 20 9 11 1006.7 1006.0 0.0
23/09:30pm 31.2 29.1 12.5 31 11.1 SW 15 20 8 11 1006.7 1006.0 0.0
23/09:00pm 31.8 28.8 12.6 31 11.5 SW 20 26 11 14 1006.1 1005.4 0.0
23/08:30pm 32.4 29.4 12.6 30 11.9 SW 20 28 11 15 1005.9 1005.2 0.0
23/08:00pm 33.3 29.7 11.8 27 12.7 SW 22 30 12 16 1005.5 1004.8 0.0
23/07:30pm 34.3 30.4 10.8 24 13.8 SW 22 28 12 15 1005.1 1004.5 0.0
23/07:00pm 35.0 30.7 9.4 21 14.7 SW 22 32 12 17 1004.9 1004.3 0.0
23/06:30pm 35.4 31.0 9.0 20 15.2 SW 22 33 12 18 1004.9 1004.3 0.0
23/06:00pm 36.0 31.5 10.2 21 15.1 SW 24 32 13 17 1004.7 1004.1 0.0
23/05:30pm 36.3 31.2 10.5 21 15.2 SW 28 43 15 23 1004.6 1004.0 0.0
23/05:00pm 37.4 33.1 10.7 20 15.8 SW 24 35 13 19 1004.6 1004.0 0.0
23/04:30pm 37.0 33.6 11.1 21 15.5 SSW 20 30 11 16 1004.7 1004.1 0.0
23/04:00pm 37.0 33.9 10.3 20 15.7 SSW 17 28 9 15 1005.1 1004.5 0.0
23/03:30pm 36.9 33.0 8.7 18 16.2 SSW 19 28 10 15 1005.5 1004.8 0.0
23/03:00pm 37.0 33.3 9.6 19 16.0 SSW 19 33 10 18 1005.7 1005.0 0.0
23/02:30pm 36.4 32.6 9.8 20 15.5 SSW 20 32 11 17 1006.0 1005.3 0.0
23/02:00pm 36.2 32.6 10.4 21 15.1 S 20 30 11 16 1006.5 1005.8 0.0
23/01:30pm 35.7 32.5 11.4 23 14.5 SSW 19 32 10 17 1007.0 1006.3 0.0
23/01:00pm 34.6 31.7 11.1 24 13.8 SSW 17 28 9 15 1007.3 1006.6 0.0
23/12:30pm 33.5 29.8 9.5 23 13.8 SSW 19 28 10 15 1007.5 1006.8 0.0
23/12:00pm 32.8 30.6 10.8 26 12.8 S 13 24 7 13 1007.8 1007.1 0.0
23/11:30am 31.5 29.3 10.8 28 12.0 S 13 20 7 11 1008.1 1007.4 0.0
23/11:00am 31.0 27.6 10.4 28 11.8 S 19 26 10 14 1008.0 1007.3 0.0
23/10:30am 30.4 26.8 9.8 28 11.7 S 19 24 10 13 1008.2 1007.5 0.0
23/10:00am 30.2 26.5 10.2 29 11.4 S 20 28 11 15 1008.4 1007.7 0.0
23/09:30am 28.9 25.8 12.3 36 9.7 S 20 26 11 14 1008.3 1007.6 0.0
23/09:00am 28.1 24.9 12.0 36 9.4 SSE 20 26 11 14 1008.0 1007.3 0.0
23/08:30am 27.8 24.8 12.6 39 8.9 S 20 26 11 14 1007.8 1007.1 0.0
23/08:00am 27.5 24.7 12.7 40 8.7 SSE 19 24 10 13 1007.5 1006.8 0.0
23/07:30am 26.2 24.7 13.0 44 7.7 S 13 19 7 10 1007.5 1006.8 0.0
23/07:00am 25.1 24.1 13.3 48 6.9 S 11 17 6 9 1006.8 1006.1 0.0
23/06:30am 24.8 24.5 13.4 49 6.7 S 7 9 4 5 1006.5 1005.8 0.0
23/06:00am 25.7 24.7 13.5 46 7.2 S 11 13 6 7 1006.2 1005.5 0.0
23/05:30am 26.3 24.9 13.4 45 7.6 S 13 17 7 9 1006.2 1005.5 0.0
23/05:00am 26.6 24.8 13.3 43 7.8 S 15 20 8 11 1006.1 1005.4 0.0
23/04:30am 26.7 24.3 13.8 45 7.7 S 19 24 10 13 1005.8 1005.1 0.0
23/04:00am 26.8 24.8 13.9 45 7.7 S 17 24 9 13 1005.8 1005.1 0.0
23/03:30am 27.0 25.3 12.3 40 8.6 S 13 17 7 9 1005.8 1005.1 0.0
23/03:00am 28.2 25.8 11.3 35 9.7 S 15 19 8 10 1006.0 1005.3 0.0
23/02:30am 27.5 26.3 11.5 37 9.2 SW 9 13 5 7 1006.1 1005.4 0.0
23/02:00am 27.0 25.9 11.9 39 8.7 SW 9 13 5 7 1006.2 1005.5 0.0
23/01:30am 26.3 26.0 12.7 43 8.0 SW 6 13 3 7 1006.1 1005.4 0.0
23/01:00am 26.4 27.3 12.8 43 7.9 CALM 0 0 0 0 1006.2 1005.5 0.0
23/12:30am 27.1 27.8 12.3 39 8.6 CALM 0 0 0 0 1006.6 1005.9 0.0
23/12:00am 28.0 28.8 12.4 38 9.1 CALM 0 0 0 0 1006.8 1006.1 0.0
 
Date/Time
CDT
Temp
°C
App
Temp
°C
Dew
Point
Rel
Hum
%
Delta-T
°C
Wind Press
QNH
hPa
Press
MSL
hPa
Rain
since 9 am
mm
Dir
 
Spd
km/h
Gust
km/h
Spd
kts
Gust
kts
22/11:30pm 29.9 29.2 11.9 33 10.6 SSW 7 7 4 4 1006.9 1006.2 0.0
22/11:00pm 30.9 29.4 11.8 31 11.2 SSW 11 13 6 7 1007.1 1006.4 0.0

Other Formats:

Comma delimited format used in spreadsheet applications
http://www.bom.gov.au/fwo/IDS60801/IDS60801.95658.axf

JavaScript Object Notation format (JSON) in row-major order
http://www.bom.gov.au/fwo/IDS60801/IDS60801.95658.json